Latest Coastal Weather Observations for Low Head

IDT60701

Issued at 5:32 pm EST Tuesday 16 August 2022 (issued every 10 minutes, with the page automatically refreshed every 10 minutes)

About coastal observations | Map of coastal stations | Coastal observations for TAS | Marine services | Other Formats
Station Details ID: 091293 Name: LOW HEAD Lat: -41.05 Lon: 146.79 Height: 3.0 m
Data from the previous 72 hours. | See also: Recent months at Low Head
Date/Time
EST
Wind Sea
Height
m
Swell Vis
km
Cloud Weather Temp
°C
Press
MSL
hPa
Rain since
9am
mm
Dir  Spd
kts
Gust
kts
Height
m
Period
s
Dir
16/05:30pm WSW 10 13 - - - - - - - 13.4 1009.5 0.2
16/05:00pm W 9 11 - - - - - - - 13.9 1009.2 0.2
16/04:30pm W 11 14 - - - - - - - 14.0 1009.1 0.2
16/04:00pm WNW 13 14 - - - - - - - 13.8 1008.7 0.2
16/03:30pm W 12 13 - - - - - - - 13.9 1008.4 0.2
16/03:00pm W 14 15 - - - - - - - 13.6 1008.2 0.2
16/02:30pm WNW 11 13 - - - - - - - 13.8 1008.0 0.2
16/02:00pm W 15 16 - - - - - - - 13.7 1007.8 0.2
16/01:30pm WNW 13 14 - - - - - - - 14.6 1007.7 0.2
16/01:00pm NW 9 11 - - - - - - - 14.5 1007.7 0.2
16/12:30pm W 13 15 - - - - - - - 13.6 1007.3 0.2
16/12:00pm WNW 9 11 - - - - - - - 13.9 1006.9 0.2
16/11:30am WNW 8 9 - - - - - - - 13.2 1006.9 0.2
16/11:00am W 11 13 - - - - - - - 12.4 1007.1 0.2
16/10:30am W 9 12 - - - - - - - 12.8 1006.8 0.0
16/10:00am W 12 13 - - - - - - - 12.1 1006.4 0.0
16/09:30am WSW 7 10 - - - - - - - 11.8 1005.9 0.0
16/09:00am SSE 1 3 - - - - - - - 10.9 1005.5 1.4
16/08:30am SW 9 11 - - - - - - - 11.0 1005.1 1.4
16/08:00am WSW 11 12 - - - - - - - 10.8 1004.3 1.4
16/07:30am WSW 12 14 - - - - - - - 10.7 1003.7 1.4
16/07:00am WSW 10 13 - - - - - - - 10.5 1003.1 1.4
16/06:30am WSW 9 11 - - - - - - - 10.2 1002.7 1.4
16/06:00am WSW 11 13 - - - - - - - 9.9 1002.4 1.4
16/05:30am SSW 6 7 - - - - - - - 7.1 1002.2 1.4
16/05:00am SSE 6 7 - - - - - - - 6.6 1001.8 1.4
16/04:30am SSE 7 9 - - - - - - - 7.5 1001.1 1.4
16/04:00am SSE 7 9 - - - - - - - 7.7 1000.5 1.4
16/03:30am ESE 3 5 - - - - - - - 7.7 1000.1 1.4
16/03:00am SSE 5 6 - - - - - - - 7.8 1000.0 1.4
16/02:30am SSE 5 7 - - - - - - - 7.9 999.9 1.4
16/02:00am SSE 5 6 - - - - - - - 8.5 999.7 1.4
16/01:30am S 4 6 - - - - - - - 8.5 999.4 1.4
16/01:00am SSE 7 8 - - - - - - - 8.4 999.0 1.4
16/12:30am SSE 7 8 - - - - - - - 8.7 998.9 1.4
16/12:00am SSE 6 7 - - - - - - - 9.1 998.7 1.4
 
Date/Time
EST
Wind Sea
Height
m
Swell Vis
km
Cloud Weather Temp
°C
Press
MSL
hPa
Rain since
9am
mm
Dir  Spd
kts
Gust
kts
Height
m
Period
s
Dir
15/11:30pm SSE 6 7 - - - - - - - 9.3 998.6 1.4
15/11:00pm S 5 6 - - - - - - - 9.7 998.1 1.4
15/10:30pm CALM 0 0 - - - - - - - 10.7 998.0 1.4
15/10:00pm CALM 0 0 - - - - - - - 10.8 997.8 1.4
15/09:30pm SW 5 5 - - - - - - - 11.3 997.7 1.4
15/09:00pm SW 6 7 - - - - - - - 11.5 997.6 1.4
15/08:30pm SW 7 8 - - - - - - - 11.8 997.3 1.4
15/08:00pm SW 9 10 - - - - - - - 11.6 997.1 1.4
15/07:30pm WSW 12 14 - - - - - - - 11.8 996.8 1.4
15/07:00pm WSW 15 17 - - - - - - - 11.8 996.4 1.4
15/06:30pm W 17 20 - - - - - - - 11.8 996.0 1.4
15/06:00pm WSW 16 19 - - - - - - - 11.9 995.8 1.4
15/05:30pm W 18 21 - - - - - - - 12.1 995.4 1.4
15/05:00pm WSW 17 19 - - - - - - - 12.0 995.0 1.4
15/04:30pm WSW 16 19 - - - - - - - 12.0 994.7 1.4
15/04:00pm WSW 17 19 - - - - - - - 11.8 994.5 1.4
15/03:30pm WSW 15 16 - - - - - - - 12.0 994.2 1.2
15/03:00pm SW 11 14 - - - - - - - 12.8 994.0 1.0
15/02:30pm S 10 13 - - - - - - - 13.1 993.7 1.0
15/02:00pm S 13 17 - - - - - - - 12.8 993.4 1.0
15/01:30pm S 15 18 - - - - - - - 12.7 993.4 1.0
15/01:00pm SSE 14 16 - - - - - - - 12.2 993.7 1.0
15/12:30pm S 14 17 - - - - - - - 11.8 993.9 1.0
15/12:00pm SSE 13 16 - - - - - - Recent precip. 11.8 994.2 1.0
15/11:30am SSE 11 13 - - - - - - - 11.2 994.5 1.0
15/11:00am SSE 11 14 - - - - - - - 10.6 994.7 0.8
15/10:30am SSE 9 14 - - - - - - - 10.5 994.6 0.8
15/10:00am SSE 13 16 - - - - - - - 10.4 994.6 0.6
15/09:30am S 15 18 - - - - - - - 10.3 994.7 0.6
15/09:00am SSE 14 19 - - - - - - Rain 10.1 994.8 12.2
15/08:30am SSE 14 19 - - - - - - - 10.0 994.7 11.4
15/08:00am SSE 13 18 - - - - - - - 10.0 994.7 11.0
15/07:30am SSE 14 18 - - - - - - - 9.9 994.5 10.4
15/07:00am SSE 12 19 - - - - - - - 10.0 994.3 10.2
15/06:30am SSE 12 15 - - - - - - - 10.0 994.2 10.0
15/06:00am SE 11 16 - - - - - - Recent precip. 10.1 994.1 9.4
15/05:30am SE 12 16 - - - - - - - 10.0 994.0 8.6
15/05:00am SSE 13 18 - - - - - - - 10.0 993.9 8.4
15/04:30am SSE 13 18 - - - - - - - 10.1 993.7 8.0
15/04:00am SE 13 21 - - - - - - - 10.3 993.7 7.6
15/03:30am SSE 14 20 - - - - - - - 10.5 993.6 7.4
15/03:00am SSE 14 17 - - - - - - - 10.6 993.9 7.4
15/02:30am SSE 11 15 - - - - - - - 10.6 994.2 7.4
15/02:00am SE 12 19 - - - - - - - 10.8 994.4 7.4
15/01:30am SE 12 19 - - - - - - - 10.9 994.6 7.0
15/01:00am SE 12 18 - - - - - - - 11.0 994.6 5.2
15/12:30am SE 12 18 - - - - - - - 11.0 994.6 4.4
15/12:00am SE 12 17 - - - - - - Recent precip. 11.0 994.7 4.2
 
Date/Time
EST
Wind Sea
Height
m
Swell Vis
km
Cloud Weather Temp
°C
Press
MSL
hPa
Rain since
9am
mm
Dir  Spd
kts
Gust
kts
Height
m
Period
s
Dir
14/11:30pm SE 13 18 - - - - - - - 11.1 994.6 4.2
14/11:00pm SE 12 17 - - - - - - - 11.0 994.4 3.4
14/10:30pm SSE 13 19 - - - - - - - 11.2 994.7 2.2
14/10:00pm SSE 13 19 - - - - - - - 11.6 994.6 1.0
14/09:30pm SSE 15 23 - - - - - - - 11.8 994.6 0.8
14/09:00pm SSE 14 17 - - - - - - - 11.9 994.3 0.8
14/08:30pm SSE 15 20 - - - - - - - 11.9 994.0 0.8
14/08:00pm SSE 17 21 - - - - - - - 12.0 993.9 0.8
14/07:30pm SSE 17 20 - - - - - - - 12.1 993.9 0.8
14/07:00pm SSE 17 21 - - - - - - - 12.2 993.7 0.8
14/06:30pm SSE 18 22 - - - - - - - 12.3 993.5 0.8
14/06:00pm SSE 20 27 - - - - - - - 12.6 993.3 0.8
14/05:30pm SSE 21 27 - - - - - - - 12.7 993.3 0.8
14/05:00pm S 21 27 - - - - - - - 13.1 992.9 0.8
14/04:30pm SSE 22 27 - - - - - - - 13.3 992.9 0.8
14/04:00pm S 24 30 - - - - - - - 13.4 992.9 0.8
14/03:30pm SSE 21 26 - - - - - - - 13.8 993.1 0.8
14/03:00pm SSE 20 30 - - - - - - - 14.5 993.0 0.8
14/02:47pm SSE 19 29 - - - - - - - 14.2 993.2 0.8
14/02:30pm SSE 18 27 - - - - - - - 13.7 993.3 0.8
14/02:00pm SSE 20 31 - - - - - - - 14.5 993.5 0.8
14/01:41pm SSE 18 30 - - - - - - - 15.3 993.6 0.8
14/01:30pm SSE 16 22 - - - - - - - 15.2 993.7 0.8
14/01:00pm SSE 15 21 - - - - - - - 14.7 994.3 0.8
14/12:30pm S 16 20 - - - - - - - 14.5 994.9 0.8
14/12:00pm S 15 19 - - - - - - - 13.6 995.8 0.8
14/11:30am S 18 21 - - - - - - - 13.2 996.2 0.8
14/11:00am S 13 15 - - - - - - - 12.9 996.6 0.8
14/10:30am S 12 13 - - - - - - - 12.5 996.9 0.8
14/10:00am S 13 15 - - - - - - - 11.8 997.1 0.6
14/09:30am S 13 15 - - - - - - - 11.8 997.2 0.4
14/09:00am SSE 16 21 - - - - - - Rain 12.0 997.6 5.4
14/08:30am SSE 15 21 - - - - - - - 12.4 997.8 5.0
14/08:00am SSE 10 13 - - - - - - - 12.0 997.7 5.0
14/07:30am SSE 15 19 - - - - - - - 12.0 997.7 5.0
14/07:00am SE 11 16 - - - - - - - 11.8 998.5 5.0
14/06:30am SSE 20 31 - - - - - - - 12.2 998.2 4.2
14/06:21am SSE 21 31 - - - - - - - 12.4 997.9 3.8
14/06:00am SSE 20 26 - - - - - - Recent precip. 12.3 998.1 3.8
14/05:30am SSE 21 26 - - - - - - - 12.3 998.8 3.6
14/05:00am SSE 19 25 - - - - - - - 12.6 999.5 2.4
14/04:30am SSE 19 27 - - - - - - - 13.0 999.8 2.4
14/04:00am SSE 20 27 - - - - - - - 13.1 1000.5 2.2
14/03:30am SSE 21 27 - - - - - - - 12.9 1000.8 2.2
14/03:00am S 21 27 - - - - - - Recent precip. 12.9 1001.5 1.6
14/02:30am S 21 29 - - - - - - - 13.1 1002.2 1.4
14/02:00am S 20 25 - - - - - - - 12.8 1003.3 1.4
14/01:45am S 14 23 - - - - - - - 12.8 1003.8 1.4
14/01:30am SSW 9 11 - - - - - - - 11.8 1004.4 1.4
14/01:00am SSW 11 12 - - - - - - - 11.4 1005.0 1.4
14/12:30am S 12 14 - - - - - - - 11.3 1005.8 1.4
14/12:00am SSE 16 22 - - - - - - - 11.4 1006.6 0.0
 
Date/Time
EST
Wind Sea
Height
m
Swell Vis
km
Cloud Weather Temp
°C
Press
MSL
hPa
Rain since
9am
mm
Dir  Spd
kts
Gust
kts
Height
m
Period
s
Dir
13/11:30pm SSE 19 23 - - - - - - - 12.0 1007.0 0.0
13/11:00pm S 19 23 - - - - - - - 11.9 1007.7 0.0
13/10:30pm S 18 20 - - - - - - - 11.9 1008.6 0.0
13/10:00pm S 15 17 - - - - - - - 11.8 1009.4 0.0
13/09:30pm SSE 15 20 - - - - - - - 11.5 1010.0 0.0
13/09:00pm S 15 18 - - - - - - - 11.8 1010.3 0.0
13/08:30pm S 15 17 - - - - - - - 11.9 1010.5 0.0
13/08:00pm S 11 12 - - - - - - - 11.7 1010.8 0.0
13/07:30pm S 11 13 - - - - - - - 11.9 1011.3 0.0
13/07:00pm SSE 9 11 - - - - - - - 11.6 1011.6 0.0
13/06:30pm S 9 11 - - - - - - - 12.0 1011.7 0.0
13/06:00pm S 10 11 - - - - - - - 12.5 1011.7 0.0

Other formats

Comma delimited format used in spreadsheet applications
http://www.bom.gov.au/fwo/IDT60701/IDT60701.95964.axf

JavaScript Object Notation format (JSON) in row-major order
http://www.bom.gov.au/fwo/IDT60701/IDT60701.95964.json

Data quality

Most of these data are generated automatically and are frequently updated. Quality checks on data are not normally performed. It is possible for incorrect values to appear. Refer to information at About Latest Weather Observations and please check the disclaimer before using these data.